Time;durP1;ratioP1;P1;durP2;ratioP2;P2;SDS_P1;SDS_P2;PMS_P1;PMS_P2;Temp;Humidity;BMP_temperature;BMP_pressure;BME280_temperature;BME280_humidity;BME280_pressure;Samples;Min_cycle;Max_cycle;Signal;HPM_P1;HPM_P2
2021/01/03 00:01:58;;;;;;;16.30;9.13;;;5.80;77.80;;;;;;5036690;28;20030;-72
2021/01/03 00:04:23;;;;;;;9.98;6.63;;;5.70;77.70;;;;;;5037541;28;20040;-73
2021/01/03 00:06:50;;;;;;;8.95;5.78;;;5.80;77.70;;;;;;5036492;28;20029;-73
2021/01/03 00:09:17;;;;;;;8.15;4.97;;;5.90;77.60;;;;;;5037191;28;20042;-73
2021/01/03 00:11:43;;;;;;;7.65;3.90;;;5.90;77.60;;;;;;5036157;28;20029;-74
2021/01/03 00:14:09;;;;;;;8.30;3.92;;;5.80;77.60;;;;;;5037622;28;20512;-73
2021/01/03 00:16:35;;;;;;;9.43;3.97;;;5.80;77.60;;;;;;5037369;28;20029;-72
2021/01/03 00:19:02;;;;;;;7.88;4.47;;;5.80;77.60;;;;;;5037133;28;20034;-72
2021/01/03 00:21:28;;;;;;;9.43;5.97;;;5.70;77.40;;;;;;5037765;28;20481;-73
2021/01/03 00:23:54;;;;;;;8.30;5.32;;;5.70;77.30;;;;;;5037203;28;20045;-73
2021/01/03 00:26:20;;;;;;;7.18;4.30;;;6.00;77.50;;;;;;5036473;28;20084;-73
2021/01/03 00:28:45;;;;;;;5.57;3.63;;;5.80;77.40;;;;;;5036073;28;20512;-73
2021/01/03 00:31:11;;;;;;;5.32;3.40;;;5.70;77.30;;;;;;5037840;28;20117;-73
2021/01/03 00:33:37;;;;;;;4.95;3.15;;;5.80;77.30;;;;;;5037156;28;20037;-72
2021/01/03 00:36:04;;;;;;;6.43;2.67;;;5.90;77.40;;;;;;5037611;28;20124;-72
2021/01/03 00:38:29;;;;;;;4.43;2.88;;;5.90;77.30;;;;;;5035633;28;20037;-73
2021/01/03 00:40:55;;;;;;;7.03;4.45;;;5.70;77.20;;;;;;5037097;28;20385;-73
2021/01/03 00:43:21;;;;;;;14.32;7.70;;;5.90;77.30;;;;;;5035855;28;20128;-73
2021/01/03 00:45:47;;;;;;;12.88;6.70;;;5.60;77.10;;;;;;5037337;28;20029;-73
2021/01/03 00:48:13;;;;;;;6.88;4.60;;;5.80;77.30;;;;;;5037194;28;20034;-73
2021/01/03 00:50:39;;;;;;;7.80;4.80;;;6.00;77.40;;;;;;5036818;28;20489;-73
2021/01/03 00:53:05;;;;;;;11.65;6.20;;;5.90;77.40;;;;;;5035699;28;20041;-73
2021/01/03 00:55:31;;;;;;;10.23;6.65;;;5.80;77.20;;;;;;5036920;28;20033;-73
2021/01/03 00:57:57;;;;;;;10.20;6.25;;;5.70;77.10;;;;;;5037179;28;20624;-73
2021/01/03 01:00:25;;;;;;;13.55;6.60;;;5.80;77.30;;;;;;5035332;28;20034;-73
2021/01/03 01:02:51;;;;;;;8.80;5.70;;;6.20;77.50;;;;;;5037094;28;20045;-73
2021/01/03 01:05:18;;;;;;;9.75;5.15;;;5.70;77.30;;;;;;5036932;28;20029;-73
2021/01/03 01:07:44;;;;;;;8.18;5.22;;;5.60;77.40;;;;;;5035521;28;20125;-73
2021/01/03 01:10:13;;;;;;;9.98;6.40;;;5.20;77.30;;;;;;5034847;28;20046;-73
2021/01/03 01:12:39;;;;;;;10.55;6.30;;;5.70;77.60;;;;;;5036386;28;20037;-72
2021/01/03 01:15:08;;;;;;;13.77;9.02;;;5.70;77.70;;;;;;5036720;28;20029;-73
2021/01/03 01:17:34;;;;;;;22.65;14.35;;;5.50;77.60;;;;;;5036394;28;20091;-73
2021/01/03 01:20:00;;;;;;;10.52;5.78;;;5.60;77.80;;;;;;5036406;28;20041;-73
2021/01/03 01:22:25;;;;;;;8.32;4.97;;;5.70;77.80;;;;;;5036582;28;20037;-73
2021/01/03 01:24:51;;;;;;;7.50;4.75;;;6.20;78.10;;;;;;5035818;28;20053;-72
2021/01/03 01:27:17;;;;;;;6.10;4.57;;;5.90;77.80;;;;;;5036692;28;20040;-73
2021/01/03 01:29:43;;;;;;;8.65;4.72;;;6.10;77.90;;;;;;5036606;28;20172;-72
2021/01/03 01:32:08;;;;;;;7.10;5.03;;;6.10;77.90;;;;;;5036012;28;20040;-73
2021/01/03 01:34:34;;;;;;;7.30;4.72;;;5.80;77.70;;;;;;5036046;28;20030;-72
2021/01/03 01:37:00;;;;;;;6.90;4.35;;;6.20;77.90;;;;;;5035180;28;20592;-73
2021/01/03 01:39:26;;;;;;;8.70;4.90;;;6.00;77.70;;;;;;5036292;28;20029;-73
2021/01/03 01:41:51;;;;;;;7.32;4.43;;;5.90;77.70;;;;;;5035293;28;20037;-73
2021/01/03 01:44:17;;;;;;;6.90;4.85;;;6.20;77.90;;;;;;5036128;28;20037;-73
2021/01/03 01:47:00;;;;;;;7.88;4.80;;;5.90;77.70;;;;;;5035959;28;20388;-73
2021/01/03 01:49:25;;;;;;;11.10;5.05;;;6.00;77.50;;;;;;5036179;28;20083;-73
2021/01/03 01:51:54;;;;;;;8.23;5.68;;;5.90;77.50;;;;;;5035887;28;20037;-73
2021/01/03 01:54:34;;;;;;;5.88;4.95;;;6.00;77.50;;;;;;5034434;28;20029;-72
2021/01/03 01:57:06;;;;;;;9.43;5.30;;;5.90;77.50;;;;;;5035605;28;20448;-73
2021/01/03 02:00:02;;;;;;;6.97;4.72;;;5.90;77.40;;;;;;5035608;28;20037;-73
2021/01/03 02:02:54;;;;;;;8.30;4.80;;;6.30;77.70;;;;;;5035668;28;20145;-73
2021/01/03 02:05:45;;;;;;;6.78;4.55;;;5.90;77.50;;;;;;5035546;28;20033;-73
2021/01/03 02:08:38;;;;;;;7.80;4.95;;;5.90;77.60;;;;;;5035310;28;20041;-72
2021/01/03 02:11:08;;;;;;;8.18;4.78;;;6.30;77.90;;;;;;5023006;28;20045;-73
2021/01/03 02:13:41;;;;;;;8.85;4.93;;;6.10;77.90;;;;;;5035143;28;20030;-73
2021/01/03 02:16:15;;;;;;;7.00;4.75;;;5.80;77.70;;;;;;5033859;28;20041;-73
2021/01/03 02:18:44;;;;;;;6.90;4.53;;;6.40;77.90;;;;;;5034748;28;20033;-72
2021/01/03 02:21:33;;;;;;;6.47;4.47;;;6.00;77.70;;;;;;5035093;28;20038;-73
2021/01/03 02:24:14;;;;;;;6.28;4.53;;;6.10;77.60;;;;;;5049847;28;20053;-73
2021/01/03 02:27:07;;;;;;;6.30;4.13;;;6.10;77.70;;;;;;5035152;28;20030;-72
2021/01/03 02:29:36;;;;;;;9.15;4.63;;;6.00;77.60;;;;;;5035087;28;20108;-73
2021/01/03 02:32:04;;;;;;;5.40;4.25;;;6.20;77.80;;;;;;5034691;28;20033;-72
2021/01/03 02:34:40;;;;;;;8.70;4.57;;;6.00;77.70;;;;;;5034929;28;20049;-72
2021/01/03 02:37:20;;;;;;;6.90;4.78;;;5.90;77.70;;;;;;5034937;28;20042;-73
2021/01/03 02:39:53;;;;;;;7.00;4.57;;;6.20;77.80;;;;;;5034777;28;20083;-73
2021/01/03 02:42:24;;;;;;;6.88;4.15;;;6.10;77.80;;;;;;5034513;28;20481;-73
2021/01/03 02:44:51;;;;;;;8.20;4.30;;;6.00;77.80;;;;;;5034641;28;20033;-73
2021/01/03 02:47:21;;;;;;;5.88;4.47;;;6.20;78.00;;;;;;5033301;28;20037;-73
2021/01/03 02:49:48;;;;;;;7.18;4.60;;;6.30;78.00;;;;;;5034643;28;20132;-73
2021/01/03 02:52:24;;;;;;;5.93;4.57;;;6.10;77.80;;;;;;5034550;28;20055;-73
2021/01/03 02:54:51;;;;;;;7.90;4.70;;;6.20;77.80;;;;;;5034552;28;20041;-73
2021/01/03 02:57:17;;;;;;;7.00;4.07;;;6.30;77.90;;;;;;5034383;28;20040;-73
2021/01/03 02:59:43;;;;;;;7.38;4.40;;;6.00;77.70;;;;;;5032746;28;20033;-73
2021/01/03 03:02:09;;;;;;;5.85;4.53;;;6.20;77.90;;;;;;5034486;28;20117;-73
2021/01/03 03:04:35;;;;;;;6.22;4.00;;;6.10;77.90;;;;;;5033088;28;20075;-72
2021/01/03 03:07:00;;;;;;;7.35;4.07;;;6.30;78.00;;;;;;5034167;28;20041;-72
2021/01/03 03:09:27;;;;;;;6.20;4.03;;;6.50;78.10;;;;;;5034347;28;20519;-73
2021/01/03 03:11:52;;;;;;;6.72;4.35;;;6.30;77.90;;;;;;5033017;28;20065;-74
2021/01/03 03:14:18;;;;;;;6.60;4.38;;;6.30;78.00;;;;;;5034088;28;20067;-73
2021/01/03 03:16:44;;;;;;;6.35;4.00;;;6.20;77.90;;;;;;5034044;28;20076;-73
2021/01/03 03:19:10;;;;;;;8.00;4.45;;;6.20;78.00;;;;;;5032843;28;20033;-73
2021/01/03 03:21:35;;;;;;;6.20;4.45;;;6.10;77.90;;;;;;5034061;28;20067;-73
2021/01/03 03:24:01;;;;;;;6.32;4.15;;;6.20;78.00;;;;;;5033986;28;20488;-73
2021/01/03 03:26:27;;;;;;;7.47;4.70;;;6.30;78.10;;;;;;5034238;28;20485;-73
2021/01/03 03:28:53;;;;;;;5.72;3.97;;;6.20;78.10;;;;;;5033048;28;20041;-72
2021/01/03 03:31:26;;;;;;;6.28;3.95;;;6.30;78.10;;;;;;5032107;28;20657;-74
2021/01/03 03:33:52;;;;;;;5.75;4.20;;;6.00;77.90;;;;;;5034351;28;20033;-72
2021/01/03 03:36:18;;;;;;;5.55;4.38;;;6.40;78.10;;;;;;5033029;28;20477;-73
2021/01/03 03:38:43;;;;;;;6.32;4.80;;;6.50;78.20;;;;;;5032552;28;20124;-73
2021/01/03 03:41:16;;;;;;;7.95;5.88;;;6.40;78.20;;;;;;5032370;28;20037;-73
2021/01/03 03:43:42;;;;;;;9.63;6.47;;;6.70;78.30;;;;;;5034009;28;20061;-73
2021/01/03 03:46:09;;;;;;;10.10;6.47;;;6.30;78.10;;;;;;5032944;28;20115;-72
2021/01/03 03:48:34;;;;;;;8.52;5.93;;;6.40;78.10;;;;;;5032928;28;20034;-72
2021/01/03 03:51:00;;;;;;;9.70;5.90;;;6.20;78.00;;;;;;5034205;28;20143;-73
2021/01/03 03:53:26;;;;;;;10.75;6.82;;;6.40;78.10;;;;;;5034071;28;20116;-73
2021/01/03 03:55:53;;;;;;;10.10;6.85;;;6.30;78.00;;;;;;5034109;28;20029;-72
2021/01/03 03:58:19;;;;;;;8.95;6.70;;;6.20;77.90;;;;;;5034195;28;20060;-73
2021/01/03 04:00:45;;;;;;;9.77;6.90;;;6.30;78.00;;;;;;5033978;28;20485;-72
2021/01/03 04:03:11;;;;;;;10.07;6.95;;;6.20;78.60;;;;;;5034040;28;20061;-73
2021/01/03 04:05:36;;;;;;;9.02;6.30;;;6.10;78.50;;;;;;5033930;28;20036;-72
2021/01/03 04:08:02;;;;;;;10.32;6.70;;;6.40;78.10;;;;;;5032552;28;20492;-73
2021/01/03 04:10:30;;;;;;;9.88;6.40;;;6.40;78.20;;;;;;5032325;28;20124;-72
2021/01/03 04:12:56;;;;;;;9.73;6.90;;;6.00;78.00;;;;;;5032786;28;20481;-72
2021/01/03 04:15:21;;;;;;;9.40;6.13;;;6.20;78.00;;;;;;5033578;28;20041;-72
2021/01/03 04:17:48;;;;;;;11.40;6.82;;;6.20;78.00;;;;;;5034037;28;20044;-72
2021/01/03 04:20:17;;;;;;;9.02;6.38;;;6.10;78.00;;;;;;5032344;28;20068;-72
2021/01/03 04:22:43;;;;;;;8.60;6.07;;;6.30;78.10;;;;;;5033984;28;20060;-73
2021/01/03 04:25:10;;;;;;;10.45;6.28;;;6.10;78.10;;;;;;5032344;28;20053;-72
2021/01/03 04:27:36;;;;;;;7.60;6.03;;;6.20;78.00;;;;;;5033757;28;20025;-73
2021/01/03 04:30:04;;;;;;;13.18;6.72;;;6.30;78.20;;;;;;5033466;28;20048;-73
2021/01/03 04:32:30;;;;;;;8.20;5.97;;;5.90;77.90;;;;;;5033720;28;20099;-73
2021/01/03 04:34:56;;;;;;;10.70;6.70;;;5.90;77.90;;;;;;5032578;28;20473;-73
2021/01/03 04:37:22;;;;;;;12.68;6.80;;;6.00;78.00;;;;;;5032501;28;20481;-72
2021/01/03 04:39:47;;;;;;;9.15;6.07;;;6.00;78.00;;;;;;5033853;28;20065;-73
2021/01/03 04:42:19;;;;;;;9.27;6.05;;;5.90;77.90;;;;;;5034156;28;20034;-72
2021/01/03 04:45:12;;;;;;;6.60;5.47;;;6.20;78.20;;;;;;5037198;28;20128;-72
2021/01/03 04:47:50;;;;;;;8.65;6.18;;;6.00;78.10;;;;;;5037238;28;20124;-73
2021/01/03 04:50:31;;;;;;;8.27;5.75;;;5.70;78.10;;;;;;5036983;28;20132;-73
2021/01/03 04:53:14;;;;;;;12.45;7.80;;;6.00;78.30;;;;;;5036758;28;20064;-73
2021/01/03 04:56:01;;;;;;;10.32;6.70;;;6.10;78.30;;;;;;5037090;28;20507;-73
2021/01/03 04:58:54;;;;;;;8.90;6.72;;;5.90;78.30;;;;;;5037174;28;20037;-73
2021/01/03 05:01:38;;;;;;;9.05;6.35;;;5.90;78.30;;;;;;5036359;28;20067;-72
2021/01/03 05:04:22;;;;;;;7.50;5.43;;;6.00;78.50;;;;;;5036494;28;20095;-73
2021/01/03 05:06:54;;;;;;;6.80;4.97;;;6.30;78.60;;;;;;5036673;28;20037;-72
2021/01/03 05:09:20;;;;;;;6.47;4.38;;;6.10;78.50;;;;;;5051747;28;20087;-73
2021/01/03 05:12:25;;;;;;;7.53;5.20;;;6.20;78.60;;;;;;5036613;28;20052;-73
2021/01/03 05:15:06;;;;;;;5.95;4.95;;;6.40;78.70;;;;;;5036874;28;20069;-73
2021/01/03 05:17:31;;;;;;;7.82;5.45;;;6.20;79.10;;;;;;5036778;28;20034;-73
2021/01/03 05:19:57;;;;;;;6.22;4.38;;;6.40;78.70;;;;;;5036673;28;20040;-73
2021/01/03 05:22:33;;;;;;;7.28;4.18;;;6.30;78.60;;;;;;5035392;28;20120;-72
2021/01/03 05:25:01;;;;;;;5.38;4.13;;;6.50;78.60;;;;;;5051707;28;20053;-73
2021/01/03 05:27:28;;;;;;;6.60;4.78;;;6.30;78.50;;;;;;5036676;28;20125;-73
2021/01/03 05:30:18;;;;;;;8.07;4.07;;;6.40;78.60;;;;;;5035356;28;20060;-72
2021/01/03 05:32:45;;;;;;;6.68;4.47;;;6.70;78.70;;;;;;5036387;28;20033;-73
2021/01/03 05:35:40;;;;;;;8.27;5.80;;;6.30;78.60;;;;;;5035165;28;20063;-72
2021/01/03 05:38:08;;;;;;;7.30;4.55;;;6.40;78.70;;;;;;5034724;28;20112;-73
2021/01/03 05:40:41;;;;;;;5.65;4.38;;;6.40;78.70;;;;;;5036079;28;20103;-73
2021/01/03 05:43:12;;;;;;;4.72;3.90;;;6.20;78.60;;;;;;5036115;28;20034;-73
2021/01/03 05:45:50;;;;;;;4.85;3.78;;;6.50;78.70;;;;;;5036215;28;20037;-73
2021/01/03 05:48:24;;;;;;;5.38;3.90;;;6.20;78.50;;;;;;5034932;28;20029;-73
2021/01/03 05:50:50;;;;;;;5.20;3.70;;;6.40;78.60;;;;;;5051451;28;20071;-72
2021/01/03 05:53:25;;;;;;;9.30;5.57;;;6.40;78.70;;;;;;5035793;28;20560;-72
2021/01/03 05:55:57;;;;;;;8.10;5.60;;;6.30;78.60;;;;;;5035364;28;20473;-73
2021/01/03 05:58:36;;;;;;;8.65;5.25;;;6.60;78.80;;;;;;5035829;28;20040;-73
2021/01/03 06:01:30;;;;;;;7.57;4.85;;;6.10;78.50;;;;;;5035619;28;20043;-72
2021/01/03 06:04:10;;;;;;;7.10;4.97;;;6.10;78.50;;;;;;5034327;28;20492;-73
2021/01/03 06:06:42;;;;;;;9.02;6.60;;;6.20;78.60;;;;;;5034224;28;20033;-73
2021/01/03 06:09:09;;;;;;;10.82;5.93;;;6.00;78.50;;;;;;5035824;28;20445;-73
2021/01/03 06:11:36;;;;;;;10.70;6.57;;;6.10;78.50;;;;;;5035639;28;20041;-73
2021/01/03 06:14:01;;;;;;;11.55;7.10;;;6.30;78.60;;;;;;5034214;28;20044;-73
2021/01/03 06:16:35;;;;;;;10.93;7.40;;;6.00;78.50;;;;;;5034200;28;20033;-72
2021/01/03 06:19:27;;;;;;;11.82;8.10;;;6.20;78.50;;;;;;5035729;28;20053;-72
2021/01/03 06:21:53;;;;;;;11.10;7.43;;;6.20;78.50;;;;;;5035275;28;20493;-72
2021/01/03 06:24:28;;;;;;;13.52;7.93;;;5.80;78.40;;;;;;5033374;28;20077;-72
2021/01/03 06:27:02;;;;;;;13.48;9.00;;;6.10;78.50;;;;;;5050178;28;20033;-73
2021/01/03 06:29:27;;;;;;;10.87;7.03;;;6.10;78.50;;;;;;5034807;28;20083;-72
2021/01/03 06:32:24;;;;;;;20.23;11.60;;;6.20;78.50;;;;;;5033698;28;20033;-72
2021/01/03 06:35:00;;;;;;;18.08;10.90;;;6.10;78.40;;;;;;5033267;28;20551;-72
2021/01/03 06:37:50;;;;;;;17.30;10.10;;;6.30;78.60;;;;;;5033751;28;20338;-72
2021/01/03 06:40:27;;;;;;;15.27;9.48;;;6.10;78.50;;;;;;5034926;28;20117;-72
2021/01/03 06:43:17;;;;;;;14.88;9.82;;;6.20;78.70;;;;;;5034496;28;20116;-73
2021/01/03 06:45:58;;;;;;;16.17;10.00;;;6.20;78.60;;;;;;5034778;28;20037;-73
2021/01/03 06:49:01;;;;;;;17.27;10.25;;;6.20;78.70;;;;;;5034599;28;20041;-72
2021/01/03 06:52:06;;;;;;;14.13;9.23;;;6.30;78.70;;;;;;5033269;28;20045;-72
2021/01/03 06:55:09;;;;;;;12.93;9.10;;;6.00;78.50;;;;;;5049725;28;20037;-72
2021/01/03 06:57:53;;;;;;;13.07;8.10;;;6.30;78.70;;;;;;5033448;28;20045;-73
2021/01/03 07:00:20;;;;;;;11.35;7.65;;;6.20;78.70;;;;;;5034485;28;20124;-72
2021/01/03 07:03:16;;;;;;;10.10;6.60;;;6.10;78.70;;;;;;5033259;28;20068;-72
2021/01/03 07:05:51;;;;;;;11.57;7.35;;;6.20;78.70;;;;;;5033818;28;20553;-72
2021/01/03 07:08:19;;;;;;;12.55;6.95;;;6.10;78.70;;;;;;5034365;28;20025;-73
2021/01/03 07:10:45;;;;;;;8.85;5.78;;;6.10;78.80;;;;;;5034244;28;20041;-72
2021/01/03 07:13:41;;;;;;;8.18;6.03;;;6.00;78.90;;;;;;5033061;28;20358;-72
2021/01/03 07:16:10;;;;;;;9.50;6.03;;;6.20;79.00;;;;;;5021847;28;20033;-73
2021/01/03 07:18:47;;;;;;;8.43;6.22;;;6.10;79.00;;;;;;5032936;28;20029;-73
2021/01/03 07:21:32;;;;;;;9.35;6.60;;;6.20;79.00;;;;;;5034112;28;20071;-72
2021/01/03 07:24:35;;;;;;;10.73;7.22;;;6.30;79.00;;;;;;5033537;28;20132;-72
2021/01/03 07:27:29;;;;;;;12.00;7.32;;;6.10;78.90;;;;;;5049719;28;20041;-72
2021/01/03 07:29:54;;;;;;;10.82;7.18;;;6.20;78.90;;;;;;5034195;28;20038;-72
2021/01/03 07:32:41;;;;;;;9.90;7.32;;;6.20;78.90;;;;;;5032693;28;20393;-72
2021/01/03 07:35:20;;;;;;;11.63;7.72;;;6.60;79.10;;;;;;5031800;28;20485;-72
2021/01/03 07:37:48;;;;;;;12.23;7.55;;;6.10;78.70;;;;;;5033955;28;20065;-72
2021/01/03 07:40:17;;;;;;;11.95;8.13;;;6.10;78.70;;;;;;5032668;28;20396;-72
2021/01/03 07:42:45;;;;;;;12.30;8.50;;;6.20;78.80;;;;;;5033722;28;20041;-72
2021/01/03 07:45:14;;;;;;;14.48;8.52;;;6.00;78.60;;;;;;5033381;28;20481;-72
2021/01/03 07:47:44;;;;;;;11.90;8.25;;;6.30;78.80;;;;;;5033791;28;20126;-72
2021/01/03 07:50:21;;;;;;;12.50;7.97;;;6.20;78.50;;;;;;5033821;28;20049;-72
2021/01/03 07:52:51;;;;;;;14.60;8.30;;;6.10;78.50;;;;;;5033474;28;20041;-72
2021/01/03 07:55:25;;;;;;;13.48;8.07;;;6.10;78.50;;;;;;5033675;28;20034;-72
2021/01/03 07:58:02;;;;;;;12.60;8.05;;;6.10;78.50;;;;;;5032140;28;20076;-72
2021/01/03 08:00:35;;;;;;;11.85;7.60;;;6.10;78.50;;;;;;5032518;28;20068;-72
2021/01/03 08:03:14;;;;;;;9.40;6.75;;;6.10;78.50;;;;;;5033911;28;20128;-72
2021/01/03 08:05:42;;;;;;;9.77;6.95;;;6.10;78.40;;;;;;5032332;28;20037;-72
2021/01/03 08:08:26;;;;;;;7.80;6.45;;;6.00;78.40;;;;;;5032285;28;20037;-72
2021/01/03 08:11:19;;;;;;;9.80;6.82;;;6.00;78.40;;;;;;5032183;28;20050;-72
2021/01/03 08:13:48;;;;;;;10.38;7.47;;;6.10;78.40;;;;;;5033305;28;20517;-72
2021/01/03 08:16:26;;;;;;;9.85;7.03;;;6.10;78.30;;;;;;5032533;28;20040;-72
2021/01/03 08:19:06;;;;;;;11.35;7.00;;;6.00;78.20;;;;;;5037213;28;20037;-73
2021/01/03 08:21:39;;;;;;;12.18;8.32;;;6.00;78.20;;;;;;5037477;28;20037;-72
2021/01/03 08:24:16;;;;;;;33.97;18.85;;;6.00;78.30;;;;;;5036724;28;20079;-72
2021/01/03 08:26:50;;;;;;;33.58;18.92;;;5.90;78.30;;;;;;5025473;28;20033;-73
2021/01/03 08:29:21;;;;;;;15.30;9.75;;;5.90;78.30;;;;;;5005129;28;20046;-72
2021/01/03 08:31:50;;;;;;;21.02;13.52;;;6.00;78.40;;;;;;5014927;28;20045;-72
2021/01/03 08:34:22;;;;;;;15.82;9.68;;;6.00;78.50;;;;;;5013811;28;20528;-73
2021/01/03 08:36:48;;;;;;;12.00;8.45;;;6.40;78.60;;;;;;5015258;28;20389;-73
2021/01/03 08:39:15;;;;;;;11.02;8.55;;;6.00;78.50;;;;;;5016353;28;20088;-73
2021/01/03 08:41:56;;;;;;;10.75;7.75;;;6.00;78.60;;;;;;5015146;28;20132;-75
2021/01/03 08:44:27;;;;;;;25.50;17.17;;;6.00;78.70;;;;;;5015163;28;20064;-74
2021/01/03 08:47:05;;;;;;;15.77;11.48;;;6.50;79.00;;;;;;5015330;28;20033;-73
2021/01/03 08:49:31;;;;;;;14.95;10.20;;;6.10;78.70;;;;;;5016191;28;20045;-72
2021/01/03 08:52:07;;;;;;;10.90;8.35;;;6.30;78.90;;;;;;5016354;28;20072;-73
2021/01/03 08:54:33;;;;;;;10.40;6.75;;;6.50;78.90;;;;;;5016415;28;20068;-72
2021/01/03 08:57:02;;;;;;;8.40;5.75;;;6.10;78.80;;;;;;5015773;28;20037;-72
2021/01/03 08:59:28;;;;;;;8.80;6.40;;;6.20;78.80;;;;;;5015603;28;20434;-72
2021/01/03 09:01:54;;;;;;;9.38;6.57;;;6.10;78.90;;;;;;5016697;28;20121;-72
2021/01/03 09:04:20;;;;;;;10.30;6.95;;;6.30;78.90;;;;;;5014643;28;20034;-71
2021/01/03 09:06:59;;;;;;;11.13;7.18;;;6.30;78.80;;;;;;5016339;28;20251;-72
2021/01/03 09:09:29;;;;;;;9.32;8.05;;;6.40;78.70;;;;;;5014686;28;20040;-72
2021/01/03 09:11:56;;;;;;;7.60;6.50;;;6.50;78.80;;;;;;5015602;28;20044;-73
2021/01/03 09:14:44;;;;;;;8.32;6.00;;;6.30;78.80;;;;;;5016239;28;20034;-73
2021/01/03 09:17:17;;;;;;;6.72;5.47;;;6.30;78.90;;;;;;5014767;28;20033;-73
2021/01/03 09:20:08;;;;;;;8.70;6.00;;;6.60;78.90;;;;;;5015334;28;20042;-73
2021/01/03 09:22:43;;;;;;;7.95;5.20;;;6.40;78.70;;;;;;5015771;28;20060;-73
2021/01/03 09:25:32;;;;;;;7.45;6.03;;;6.70;79.10;;;;;;5014545;28;20120;-73
2021/01/03 09:28:11;;;;;;;7.85;5.80;;;6.40;79.10;;;;;;5014614;28;20030;-72
2021/01/03 09:30:41;;;;;;;8.52;6.10;;;6.40;78.90;;;;;;5012861;28;20046;-73
2021/01/03 09:33:09;;;;;;;9.82;6.13;;;6.50;78.90;;;;;;5014280;28;20060;-73
2021/01/03 09:36:05;;;;;;;9.32;6.43;;;6.50;79.00;;;;;;5015570;28;20038;-73
2021/01/03 09:38:50;;;;;;;8.73;6.25;;;6.50;78.80;;;;;;5015213;28;20453;-73
2021/01/03 09:41:25;;;;;;;8.30;6.20;;;6.50;78.90;;;;;;5014986;28;20073;-73
2021/01/03 09:44:22;;;;;;;10.32;6.30;;;6.40;79.00;;;;;;5015861;28;20272;-76
2021/01/03 09:47:01;;;;;;;11.02;6.82;;;6.60;78.90;;;;;;5014851;28;20057;-75
2021/01/03 09:49:36;;;;;;;9.95;7.15;;;6.60;78.50;;;;;;5014740;28;20136;-76
2021/01/03 09:52:35;;;;;;;9.88;7.00;;;6.50;78.70;;;;;;5016434;28;20056;-77
2021/01/03 09:55:04;;;;;;;9.32;7.18;;;6.60;78.60;;;;;;5014860;28;20120;-76
2021/01/03 09:57:35;;;;;;;9.93;7.13;;;6.20;78.70;;;;;;5015047;28;20033;-76
2021/01/03 10:00:03;;;;;;;8.48;6.55;;;6.70;78.70;;;;;;5014890;28;20049;-76
2021/01/03 10:02:29;;;;;;;12.27;8.90;;;6.80;78.60;;;;;;5016170;28;20072;-76
2021/01/03 10:04:55;;;;;;;10.13;7.88;;;7.00;78.60;;;;;;5016148;28;20088;-76
2021/01/03 10:07:24;;;;;;;9.07;6.80;;;6.90;78.40;;;;;;5015648;28;20045;-77
2021/01/03 10:09:54;;;;;;;9.20;6.20;;;6.90;78.10;;;;;;5016071;28;20493;-75
2021/01/03 10:12:48;;;;;;;7.68;6.50;;;7.00;78.30;;;;;;5014673;28;20034;-77
2021/01/03 10:15:19;;;;;;;7.95;5.85;;;6.90;78.80;;;;;;5012592;28;20045;-76
2021/01/03 10:17:57;;;;;;;9.80;6.30;;;6.90;78.10;;;;;;5015779;28;20026;-74
2021/01/03 10:20:35;;;;;;;7.10;6.05;;;7.00;78.10;;;;;;5014300;28;20156;-74
2021/01/03 10:23:01;;;;;;;7.38;6.25;;;6.80;77.80;;;;;;5014145;28;20099;-76
2021/01/03 10:25:27;;;;;;;10.07;6.45;;;7.00;77.80;;;;;;5015212;28;20501;-78
2021/01/03 10:28:14;;;;;;;8.15;5.75;;;6.90;77.70;;;;;;5015377;28;20033;-81
2021/01/03 10:30:41;;;;;;;7.90;5.82;;;7.10;77.80;;;;;;5013868;28;20046;-74
2021/01/03 10:33:12;;;;;;;6.85;5.75;;;7.00;77.80;;;;;;5014007;28;20132;-76
2021/01/03 10:35:38;;;;;;;6.80;5.85;;;7.00;77.70;;;;;;5013870;28;20481;-76
2021/01/03 10:38:51;;;;;;;8.70;6.35;;;6.90;77.70;;;;;;5014095;28;20040;-77
2021/01/03 10:41:17;;;;;;;7.10;5.63;;;6.80;77.70;;;;;;5014757;28;20046;-76
2021/01/03 10:43:44;;;;;;;8.38;5.90;;;7.20;78.10;;;;;;5014080;28;20370;-76
2021/01/03 10:46:10;;;;;;;6.78;5.80;;;7.00;77.90;;;;;;5007520;28;20029;-76
2021/01/03 10:48:36;;;;;;;7.95;6.13;;;6.90;77.90;;;;;;5009796;28;20068;-75
2021/01/03 10:57:46;;;;;;;9.38;5.38;;;7.20;77.80;;;;;;5011171;28;20024;-75
2021/01/03 11:00:19;;;;;;;8.63;6.32;;;7.20;77.80;;;;;;5035203;28;20041;-77
2021/01/03 11:03:13;;;;;;;8.35;5.78;;;7.30;77.70;;;;;;5033570;28;20037;-75
2021/01/03 11:12:24;;;;;;;9.25;6.15;;;7.20;77.40;;;;;;5034024;28;20095;-77
2021/01/03 11:14:50;;;;;;;7.15;5.80;;;7.40;77.40;;;;;;5034466;28;20440;-76
2021/01/03 11:20:47;;;;;;;7.28;6.00;;;7.40;77.50;;;;;;5033454;28;20120;-76
2021/01/03 11:33:18;;;;;;;8.57;6.15;;;7.80;76.60;;;;;;5033665;28;20040;-74
2021/01/03 11:36:00;;;;;;;11.80;8.55;;;7.90;76.40;;;;;;5033268;28;20108;-77
2021/01/03 11:39:16;;;;;;;7.07;5.80;;;8.00;76.20;;;;;;5033957;28;20041;-74
2021/01/03 11:53:05;;;;;;;8.77;6.20;;;7.90;75.60;;;;;;4993976;28;20085;-75
2021/01/03 11:55:36;;;;;;;10.00;7.10;;;8.00;75.90;;;;;;4998174;28;20035;-74
2021/01/03 12:15:35;;;;;;;6.00;4.53;;;8.00;75.50;;;;;;4918857;29;20035;-76
2021/01/03 12:18:03;;;;;;;5.05;4.18;;;8.00;75.10;;;;;;4918714;29;20500;-74
2021/01/03 12:20:29;;;;;;;8.25;4.78;;;7.90;75.30;;;;;;4923949;29;20520;-76
2021/01/03 12:22:55;;;;;;;6.03;4.95;;;7.80;75.00;;;;;;5005082;28;20069;-73
2021/01/03 12:25:24;;;;;;;9.23;6.07;;;8.00;75.30;;;;;;5017524;28;20081;-73
2021/01/03 12:27:50;;;;;;;15.85;9.07;;;7.80;75.20;;;;;;5017793;28;20038;-74
2021/01/03 12:30:16;;;;;;;13.43;9.07;;;7.80;75.30;;;;;;5017268;28;20453;-72
2021/01/03 12:32:42;;;;;;;8.32;6.30;;;7.90;75.40;;;;;;5017478;28;20062;-74
2021/01/03 12:35:09;;;;;;;8.98;6.82;;;7.90;75.90;;;;;;5017309;28;20520;-74
2021/01/03 12:37:37;;;;;;;10.00;6.50;;;7.90;75.00;;;;;;5016921;28;20168;-74
2021/01/03 12:40:09;;;;;;;7.50;5.88;;;7.90;75.20;;;;;;5017711;28;20041;-74
2021/01/03 12:42:36;;;;;;;7.28;6.07;;;8.00;75.40;;;;;;5017008;28;20034;-71
2021/01/03 12:45:07;;;;;;;7.88;5.57;;;7.80;75.40;;;;;;5016995;28;20037;-72
2021/01/03 12:47:33;;;;;;;8.43;6.20;;;7.90;75.20;;;;;;5016949;28;20037;-74
2021/01/03 12:49:59;;;;;;;8.20;5.45;;;7.90;74.80;;;;;;5017570;28;20129;-74
2021/01/03 12:53:08;;;;;;;6.65;5.38;;;7.90;74.70;;;;;;5018390;28;20393;-73
2021/01/03 13:05:49;;;;;;;7.65;6.30;;;7.80;74.30;;;;;;5036368;28;20500;-70
2021/01/03 13:22:24;;;;;;;10.25;6.90;;;7.50;74.90;;;;;;5036546;28;20115;-70
2021/01/03 13:25:01;;;;;;;8.30;6.60;;;7.50;74.90;;;;;;5027066;28;20045;-69
2021/01/03 13:28:10;;;;;;;9.45;7.20;;;7.50;75.00;;;;;;5036201;28;20045;-70
2021/01/03 13:40:49;;;;;;;8.85;6.68;;;7.60;75.30;;;;;;5035803;28;20396;-70
2021/01/03 13:46:58;;;;;;;9.45;6.80;;;7.50;75.40;;;;;;5035615;28;20023;-70
2021/01/03 13:49:59;;;;;;;10.60;7.82;;;7.50;75.40;;;;;;5036312;28;20128;-70
2021/01/03 13:53:20;;;;;;;15.20;10.10;;;7.60;75.70;;;;;;5035981;28;20041;-70
2021/01/03 13:59:11;;;;;;;11.27;7.50;;;7.20;75.80;;;;;;5025310;28;20177;-69
2021/01/03 14:17:23;;;;;;;13.32;8.63;;;7.30;76.60;;;;;;5895716;23;20358;-74
2021/01/03 14:26:54;;;;;;;12.40;7.47;;;7.40;76.40;;;;;;4984373;28;20088;-74
2021/01/03 14:29:31;;;;;;;13.73;8.23;;;7.40;76.30;;;;;;4996430;28;20047;-74
2021/01/03 14:35:31;;;;;;;11.05;7.40;;;7.20;76.20;;;;;;4995882;28;20096;-74
2021/01/03 14:42:11;;;;;;;10.20;6.72;;;7.20;76.20;;;;;;4973996;28;20041;-74
2021/01/03 14:45:03;;;;;;;11.98;7.15;;;7.40;76.40;;;;;;4973046;28;20112;-75
2021/01/03 14:47:42;;;;;;;10.30;6.85;;;7.30;76.20;;;;;;4957760;28;20046;-75
2021/01/03 14:50:45;;;;;;;9.13;6.82;;;7.40;76.30;;;;;;4973708;28;20057;-75
2021/01/03 14:53:37;;;;;;;14.27;9.10;;;7.50;76.30;;;;;;4974009;28;20041;-75
2021/01/03 14:56:34;;;;;;;11.60;6.97;;;7.50;76.10;;;;;;4957552;28;20138;-75
2021/01/03 14:59:25;;;;;;;13.23;8.75;;;7.50;76.20;;;;;;4974020;28;20047;-75
2021/01/03 15:08:43;;;;;;;10.55;6.68;;;7.10;76.40;;;;;;4973686;28;20430;-75
2021/01/03 15:11:09;;;;;;;9.45;6.43;;;7.30;76.70;;;;;;4975669;28;20046;-74
2021/01/03 15:21:02;;;;;;;11.98;6.68;;;7.00;76.90;;;;;;4994706;28;20049;-76
2021/01/03 15:24:02;;;;;;;12.48;7.40;;;6.80;76.90;;;;;;4995031;28;20125;-76
2021/01/03 15:27:06;;;;;;;11.68;6.60;;;6.90;77.10;;;;;;4992335;28;20058;-76
2021/01/03 15:30:08;;;;;;;10.88;6.70;;;7.00;77.10;;;;;;4995140;28;20121;-77
2021/01/03 15:43:35;;;;;;;13.30;8.40;;;6.70;76.90;;;;;;4913379;29;20035;-76
2021/01/03 16:00:17;;;;;;;11.20;7.15;;;7.20;77.20;;;;;;5630771;23;20136;-73
2021/01/03 16:30:26;;;;;;;20.45;11.85;;;6.60;77.50;;;;;;4993920;28;20456;-75
2021/01/03 17:34:41;;;;;;;22.42;11.82;;;5.60;78.50;;;;;;5357318;24;20055;-75
2021/01/03 17:57:19;;;;;;;23.35;12.30;;;5.50;78.70;;;;;;4823974;29;20091;-78
2021/01/03 17:59:48;;;;;;;23.38;11.95;;;5.70;78.90;;;;;;4840675;29;20045;-80
2021/01/03 18:02:16;;;;;;;21.58;12.50;;;5.40;78.70;;;;;;4840886;29;20043;-78
2021/01/03 18:04:42;;;;;;;24.05;13.63;;;5.70;78.80;;;;;;4815698;29;20070;-77